createdAt,value
2023-04-20T00:00:18.910Z,90.08
2023-04-20T00:01:18.912Z,87.76
2023-04-20T00:02:19.012Z,88.90
2023-04-20T00:03:19.169Z,87.19
2023-04-20T00:04:18.902Z,89.11
2023-04-20T00:05:18.940Z,87.20
2023-04-20T00:06:18.897Z,88.89
2023-04-20T00:07:18.888Z,86.73
2023-04-20T00:08:18.915Z,87.43
2023-04-20T00:09:19.206Z,85.67
2023-04-20T00:10:18.891Z,86.57
2023-04-20T00:11:18.880Z,87.66
2023-04-20T00:12:18.876Z,87.01
2023-04-20T00:13:18.877Z,88.21
2023-04-20T00:14:18.864Z,87.28
2023-04-20T00:15:18.868Z,87.00
2023-04-20T00:16:18.939Z,86.98
2023-04-20T00:17:18.889Z,85.08
2023-04-20T00:18:18.864Z,85.68
2023-04-20T00:19:19.002Z,86.81
2023-04-20T00:20:18.846Z,85.88
2023-04-20T00:21:18.846Z,86.40
2023-04-20T00:22:18.831Z,84.02
2023-04-20T00:23:18.845Z,86.09
2023-04-20T00:24:18.826Z,86.25
2023-04-20T00:25:18.826Z,85.63
2023-04-20T00:26:18.827Z,85.71
2023-04-20T00:27:18.809Z,85.09
2023-04-20T00:28:18.807Z,87.06
2023-04-20T00:29:18.919Z,85.68
2023-04-20T00:30:18.797Z,85.91
2023-04-20T00:31:18.840Z,86.77
2023-04-20T00:32:18.791Z,86.53
2023-04-20T00:33:18.785Z,87.65
2023-04-20T00:34:18.768Z,83.71
2023-04-20T00:35:18.774Z,84.42
2023-04-20T00:36:18.778Z,86.13
2023-04-20T00:37:18.763Z,82.57
2023-04-20T00:38:18.759Z,86.52
2023-04-20T00:39:18.898Z,83.89
2023-04-20T00:40:18.754Z,83.44
2023-04-20T00:41:18.759Z,82.79
2023-04-20T00:42:18.749Z,83.52
2023-04-20T00:43:18.763Z,83.93
2023-04-20T00:44:18.751Z,83.11
2023-04-20T00:45:18.764Z,83.07
2023-04-20T00:46:18.798Z,84.05
2023-04-20T00:47:18.773Z,85.57
2023-04-20T00:48:18.763Z,83.53
2023-04-20T00:49:19.220Z,83.21
2023-04-20T00:50:18.772Z,85.40
2023-04-20T00:51:18.766Z,84.00
2023-04-20T00:52:18.770Z,81.62
2023-04-20T00:53:18.769Z,84.39
2023-04-20T00:54:18.777Z,83.09
2023-04-20T00:55:18.782Z,82.71
2023-04-20T00:56:18.791Z,82.33
2023-04-20T00:57:18.769Z,84.29
2023-04-20T00:58:18.784Z,82.35
2023-04-20T00:59:18.936Z,81.71
2023-04-20T01:00:18.784Z,82.10
2023-04-20T01:01:18.801Z,84.45
2023-04-20T01:02:18.828Z,81.79
2023-04-20T01:03:19.033Z,83.58
2023-04-20T01:04:18.969Z,81.42
2023-04-20T01:05:18.854Z,81.94
2023-04-20T01:06:18.862Z,81.14
2023-04-20T01:07:18.877Z,80.80
2023-04-20T01:08:18.887Z,81.24
2023-04-20T01:09:19.120Z,81.69
2023-04-20T01:10:18.929Z,84.13
2023-04-20T01:11:18.980Z,80.85
2023-04-20T01:12:18.995Z,81.45
2023-04-20T01:13:18.991Z,82.02
2023-04-20T01:14:19.008Z,80.63
2023-04-20T01:15:19.017Z,79.73
2023-04-20T01:16:19.079Z,82.63
2023-04-20T01:17:19.087Z,82.08
2023-04-20T01:18:19.080Z,83.07
2023-04-20T01:19:19.272Z,82.26
2023-04-20T01:20:19.117Z,80.15
2023-04-20T01:21:19.139Z,83.99
2023-04-20T01:22:19.149Z,81.99
2023-04-20T01:23:19.163Z,80.90
2023-04-20T01:24:19.185Z,80.38
2023-04-20T01:25:19.232Z,79.73
2023-04-20T01:26:19.227Z,82.19
2023-04-20T01:27:19.253Z,81.24
2023-04-20T01:28:19.280Z,82.26
2023-04-20T01:29:19.448Z,82.15
2023-04-20T01:30:19.322Z,79.59
2023-04-20T01:31:19.355Z,83.21
2023-04-20T01:32:19.357Z,80.28
2023-04-20T01:33:19.379Z,81.18
2023-04-20T01:34:19.392Z,79.85
2023-04-20T01:35:19.409Z,79.40
2023-04-20T01:36:19.442Z,79.32
2023-04-20T01:37:19.431Z,81.22
2023-04-20T01:38:19.448Z,78.98
2023-04-20T01:39:19.793Z,79.97
2023-04-20T01:40:19.489Z,78.95
2023-04-20T01:41:19.518Z,79.94
2023-04-20T01:42:19.513Z,78.77
2023-04-20T01:43:19.533Z,79.62
2023-04-20T01:44:19.528Z,77.84
2023-04-20T01:45:19.535Z,78.01
2023-04-20T01:46:19.577Z,79.59
2023-04-20T01:47:19.571Z,79.44
2023-04-20T01:48:19.590Z,78.24
2023-04-20T01:49:19.795Z,78.97
2023-04-20T01:50:19.632Z,77.47
2023-04-20T01:51:19.619Z,76.02
2023-04-20T01:52:19.671Z,79.86
2023-04-20T01:53:19.653Z,76.81
2023-04-20T01:54:19.673Z,76.32
2023-04-20T01:55:20.320Z,74.66
2023-04-20T01:56:19.686Z,77.55
2023-04-20T01:57:19.695Z,77.36
2023-04-20T01:58:19.719Z,76.91
2023-04-20T01:59:19.878Z,76.60
2023-04-20T02:00:19.731Z,76.50
2023-04-20T02:01:19.824Z,76.32
2023-04-20T02:02:19.846Z,74.23
2023-04-20T02:03:19.880Z,76.26
2023-04-20T02:04:19.768Z,75.01
2023-04-20T02:05:19.797Z,76.19
2023-04-20T02:06:19.790Z,76.14
2023-04-20T02:07:19.810Z,77.12
2023-04-20T02:08:19.822Z,76.00
2023-04-20T02:09:19.921Z,76.47
2023-04-20T02:10:19.848Z,73.22
2023-04-20T02:11:19.862Z,75.41
2023-04-20T02:12:19.885Z,74.15
2023-04-20T02:13:19.902Z,76.18
2023-04-20T02:14:19.901Z,73.57
2023-04-20T02:15:19.954Z,75.05
2023-04-20T02:16:19.915Z,75.92
2023-04-20T02:17:19.942Z,76.08
2023-04-20T02:18:19.936Z,73.06
2023-04-20T02:19:19.953Z,74.46
2023-04-20T02:20:19.990Z,75.71
2023-04-20T02:21:19.989Z,74.81
2023-04-20T02:22:19.998Z,75.40
2023-04-20T02:23:19.994Z,73.97
2023-04-20T02:24:20.000Z,73.24
2023-04-20T02:25:20.014Z,75.73
2023-04-20T02:26:20.030Z,72.92
2023-04-20T02:27:20.065Z,72.03
2023-04-20T02:28:20.047Z,74.57
2023-04-20T02:29:20.473Z,71.67
2023-04-20T02:30:20.066Z,73.73
2023-04-20T02:31:20.098Z,72.44
2023-04-20T02:32:20.115Z,72.27
2023-04-20T02:33:20.086Z,72.73
2023-04-20T02:34:20.096Z,72.30
2023-04-20T02:35:20.093Z,73.86
2023-04-20T02:36:20.093Z,73.26
2023-04-20T02:37:20.116Z,72.47
2023-04-20T02:38:20.126Z,74.22
2023-04-20T02:39:20.325Z,75.50
2023-04-20T02:40:20.150Z,73.83
2023-04-20T02:41:20.162Z,72.78
2023-04-20T02:42:20.181Z,71.27
2023-04-20T02:43:20.190Z,72.14
2023-04-20T02:44:20.200Z,72.82
2023-04-20T02:45:20.211Z,71.98
2023-04-20T02:46:20.251Z,71.03
2023-04-20T02:47:20.280Z,72.94
2023-04-20T02:48:20.247Z,71.94
2023-04-20T02:49:20.256Z,73.26
2023-04-20T02:50:20.267Z,72.56
2023-04-20T02:51:20.263Z,71.30
2023-04-20T02:52:20.278Z,72.05
2023-04-20T02:53:20.300Z,70.85
2023-04-20T02:54:20.303Z,72.31
2023-04-20T02:55:20.324Z,73.34
2023-04-20T02:56:20.333Z,71.64
2023-04-20T02:57:20.343Z,72.74
2023-04-20T02:58:20.364Z,73.35
2023-04-20T02:59:20.384Z,71.01
2023-04-20T03:00:20.381Z,70.57
2023-04-20T03:01:20.472Z,73.76
2023-04-20T03:02:20.542Z,73.05
2023-04-20T03:03:20.566Z,72.36
2023-04-20T03:04:20.519Z,71.11
2023-04-20T03:05:20.437Z,70.46
2023-04-20T03:06:20.456Z,71.64
2023-04-20T03:07:20.463Z,70.79
2023-04-20T03:08:20.476Z,72.32
2023-04-20T03:09:20.488Z,69.66
2023-04-20T03:10:20.498Z,72.21
2023-04-20T03:11:20.515Z,73.52
2023-04-20T03:12:20.516Z,71.71
2023-04-20T03:13:20.536Z,72.37
2023-04-20T03:14:20.557Z,71.72
2023-04-20T03:15:20.569Z,71.06
2023-04-20T03:16:20.659Z,71.08
2023-04-20T03:17:20.674Z,68.55
2023-04-20T03:18:20.611Z,71.86
2023-04-20T03:19:20.633Z,72.19
2023-04-20T03:20:20.638Z,73.46
2023-04-20T03:21:20.668Z,70.06
2023-04-20T03:22:20.683Z,70.96
2023-04-20T03:23:20.710Z,70.90
2023-04-20T03:24:20.718Z,72.58
2023-04-20T03:25:20.744Z,73.19
2023-04-20T03:26:20.761Z,72.59
2023-04-20T03:27:20.789Z,72.73
2023-04-20T03:28:20.894Z,70.60
2023-04-20T03:29:20.817Z,70.43
2023-04-20T03:30:20.837Z,71.35
2023-04-20T03:31:20.896Z,71.18
2023-04-20T03:32:21.566Z,70.75
2023-04-20T03:33:20.917Z,70.84
2023-04-20T03:34:20.939Z,70.49
2023-04-20T03:35:21.021Z,71.28
2023-04-20T03:36:20.978Z,69.94
2023-04-20T03:37:21.004Z,69.18
2023-04-20T03:38:21.031Z,70.03
2023-04-20T03:39:21.048Z,70.77
2023-04-20T03:40:21.043Z,66.97
2023-04-20T03:41:21.071Z,66.88
2023-04-20T03:42:21.077Z,69.32
2023-04-20T03:43:21.108Z,67.86
2023-04-20T03:44:21.121Z,69.31
2023-04-20T03:45:21.133Z,72.82
2023-04-20T03:46:23.205Z,70.40
2023-04-20T03:47:21.199Z,69.46
2023-04-20T03:48:21.206Z,67.99
2023-04-20T03:49:21.206Z,69.17
2023-04-20T03:50:21.225Z,69.73
2023-04-20T03:51:21.246Z,68.44
2023-04-20T03:52:21.261Z,67.15
2023-04-20T03:53:21.278Z,69.70
2023-04-20T03:54:21.299Z,67.77
2023-04-20T03:55:21.314Z,67.79
2023-04-20T03:56:21.339Z,67.16
2023-04-20T03:57:21.360Z,67.50
2023-04-20T03:58:21.360Z,66.89
2023-04-20T03:59:21.375Z,69.14
2023-04-20T04:00:21.393Z,69.32
2023-04-20T04:01:21.423Z,68.63
2023-04-20T04:02:21.570Z,68.23
2023-04-20T04:03:21.611Z,67.62
2023-04-20T04:04:22.121Z,67.80
2023-04-20T04:05:21.646Z,66.78
2023-04-20T04:06:21.513Z,66.43
2023-04-20T04:07:21.527Z,65.58
2023-04-20T04:08:21.545Z,68.42
2023-04-20T04:09:21.571Z,68.70
2023-04-20T04:10:21.608Z,68.18
2023-04-20T04:11:21.608Z,67.67
2023-04-20T04:12:21.626Z,66.39
2023-04-20T04:13:21.643Z,66.78
2023-04-20T04:14:21.670Z,65.02
2023-04-20T04:15:21.696Z,68.41
2023-04-20T04:16:21.719Z,65.97
2023-04-20T04:17:21.764Z,66.52
2023-04-20T04:18:21.801Z,68.51
2023-04-20T04:19:21.784Z,66.47
2023-04-20T04:20:21.800Z,65.93
2023-04-20T04:21:21.819Z,66.03
2023-04-20T04:22:21.852Z,65.96
2023-04-20T04:23:21.870Z,66.29
2023-04-20T04:24:21.900Z,65.26
2023-04-20T04:25:21.950Z,64.96
2023-04-20T04:26:21.937Z,67.15
2023-04-20T04:27:21.963Z,68.34
2023-04-20T04:28:21.978Z,67.61
2023-04-20T04:29:22.007Z,65.02
2023-04-20T04:30:22.028Z,65.38
2023-04-20T04:31:22.142Z,67.57
2023-04-20T04:32:22.128Z,67.15
2023-04-20T04:33:22.097Z,64.80
2023-04-20T04:34:22.130Z,65.17
2023-04-20T04:35:22.207Z,67.69
2023-04-20T04:36:22.160Z,65.91
2023-04-20T04:37:22.195Z,65.04
2023-04-20T04:38:22.203Z,64.52
2023-04-20T04:39:22.224Z,64.59
2023-04-20T04:40:22.237Z,66.00
2023-04-20T04:41:22.256Z,64.38
2023-04-20T04:42:22.280Z,64.76
2023-04-20T04:43:22.291Z,63.98
2023-04-20T04:44:22.334Z,65.78
2023-04-20T04:45:22.349Z,63.06
2023-04-20T04:46:22.394Z,64.71
2023-04-20T04:47:22.517Z,65.80
2023-04-20T04:48:22.419Z,65.59
2023-04-20T04:49:22.440Z,63.94
2023-04-20T04:50:22.491Z,63.19
2023-04-20T04:51:22.472Z,64.25
2023-04-20T04:52:22.479Z,63.28
2023-04-20T04:53:22.500Z,66.20
2023-04-20T04:54:22.513Z,64.81
2023-04-20T04:55:22.568Z,61.93
2023-04-20T04:56:22.631Z,63.86
2023-04-20T04:57:22.561Z,63.15
2023-04-20T04:58:22.580Z,65.27
2023-04-20T04:59:22.596Z,63.60
2023-04-20T05:00:22.615Z,63.42
2023-04-20T05:01:22.671Z,63.94
2023-04-20T05:02:22.795Z,63.07
2023-04-20T05:03:22.907Z,64.55
2023-04-20T05:04:22.771Z,62.15
2023-04-20T05:05:22.701Z,63.22
2023-04-20T05:06:22.716Z,62.73
2023-04-20T05:07:22.805Z,65.82
2023-04-20T05:08:22.759Z,63.08
2023-04-20T05:09:22.771Z,64.75
2023-04-20T05:10:22.789Z,61.14
2023-04-20T05:11:22.795Z,62.23
2023-04-20T05:12:22.821Z,63.05
2023-04-20T05:13:22.828Z,61.92
2023-04-20T05:14:22.852Z,61.12
2023-04-20T05:15:22.865Z,62.07
2023-04-20T05:16:22.942Z,59.67
2023-04-20T05:17:22.978Z,62.78
2023-04-20T05:18:22.945Z,59.84
2023-04-20T05:19:22.949Z,60.57
2023-04-20T05:20:22.964Z,62.01
2023-04-20T05:21:22.998Z,62.23
2023-04-20T05:22:23.010Z,64.89
2023-04-20T05:23:23.108Z,61.77
2023-04-20T05:24:23.058Z,68.63
2023-04-20T05:25:23.088Z,68.23
2023-04-20T05:26:23.077Z,66.25
2023-04-20T05:27:23.094Z,69.40
2023-04-20T05:28:23.097Z,74.20
2023-04-20T05:29:23.120Z,75.56
2023-04-20T05:30:23.110Z,84.12
2023-04-20T05:31:23.116Z,85.39
2023-04-20T05:32:23.107Z,98.54
2023-04-20T05:33:23.080Z,102.98
2023-04-20T05:34:23.086Z,108.79
2023-04-20T05:35:23.152Z,111.99
2023-04-20T05:36:23.253Z,114.98
2023-04-20T05:37:23.263Z,123.32
2023-04-20T05:38:23.321Z,133.89
2023-04-20T05:39:23.392Z,146.39
2023-04-20T05:40:23.440Z,153.75
2023-04-20T05:41:23.486Z,161.35
2023-04-20T05:42:23.525Z,166.79
2023-04-20T05:43:23.597Z,172.09
2023-04-20T05:44:23.631Z,177.41
2023-04-20T05:45:23.675Z,182.19
2023-04-20T05:46:23.847Z,185.98
2023-04-20T05:47:23.770Z,195.65
2023-04-20T05:48:24.150Z,199.10
2023-04-20T05:49:23.807Z,202.89
2023-04-20T05:50:23.820Z,209.69
2023-04-20T05:51:23.853Z,219.86
2023-04-20T05:52:23.979Z,226.71
2023-04-20T05:53:23.906Z,231.56
2023-04-20T05:54:23.923Z,237.74
2023-04-20T05:55:23.944Z,246.88
2023-04-20T05:56:23.965Z,249.00
2023-04-20T05:57:24.002Z,249.10
2023-04-20T05:58:24.018Z,250.00
2023-04-20T05:59:24.031Z,250.15
2023-04-20T06:00:25.902Z,250.00
2023-04-20T06:01:24.065Z,250.00
2023-04-20T06:02:24.211Z,249.86
2023-04-20T06:03:24.177Z,250.00
2023-04-20T06:04:24.487Z,250.00
2023-04-20T06:05:24.245Z,250.00
2023-04-20T06:06:24.129Z,250.00
2023-04-20T06:07:24.142Z,250.00
2023-04-20T06:08:24.151Z,249.51
2023-04-20T06:09:24.170Z,249.80
2023-04-20T06:10:24.173Z,250.18
2023-04-20T06:11:24.157Z,250.00
2023-04-20T06:12:25.193Z,250.00
2023-04-20T06:13:24.198Z,249.17
2023-04-20T06:14:24.204Z,249.06
2023-04-20T06:15:24.235Z,250.00
2023-04-20T06:16:24.250Z,250.00
2023-04-20T06:17:24.256Z,250.00
2023-04-20T06:18:24.215Z,250.00
2023-04-20T06:19:24.215Z,248.24
2023-04-20T06:20:24.209Z,245.93
2023-04-20T06:21:24.208Z,246.84
2023-04-20T06:22:24.208Z,249.86
2023-04-20T06:23:24.205Z,234.72
2023-04-20T06:24:24.220Z,177.93
2023-04-20T06:25:24.231Z,156.18
2023-04-20T06:26:24.246Z,155.65
2023-04-20T06:27:24.266Z,162.47
2023-04-20T06:28:24.294Z,186.81
2023-04-20T06:29:24.312Z,210.97
2023-04-20T06:30:24.338Z,207.57
2023-04-20T06:31:24.435Z,207.19
2023-04-20T06:32:24.365Z,209.65
2023-04-20T06:33:24.354Z,214.24
2023-04-20T06:34:24.380Z,225.58
2023-04-20T06:35:24.392Z,218.93
2023-04-20T06:36:24.385Z,221.55
2023-04-20T06:37:24.379Z,223.40
2023-04-20T06:38:24.413Z,225.22
2023-04-20T06:39:24.382Z,228.44
2023-04-20T06:40:24.384Z,230.58
2023-04-20T06:41:24.364Z,230.90
2023-04-20T06:42:24.357Z,234.43
2023-04-20T06:43:24.339Z,234.24
2023-04-20T06:44:25.704Z,234.48
2023-04-20T06:45:24.296Z,235.16
2023-04-20T06:46:24.331Z,237.23
2023-04-20T06:47:24.245Z,241.04
2023-04-20T06:48:31.507Z,247.13
2023-04-20T06:49:25.147Z,235.02
2023-04-20T06:50:24.100Z,237.45
2023-04-20T06:51:24.064Z,243.31
2023-04-20T06:52:24.022Z,251.81
2023-04-20T06:53:23.994Z,265.37
2023-04-20T06:54:24.020Z,250.42
2023-04-20T06:55:23.913Z,249.57
2023-04-20T06:56:23.904Z,250.00
2023-04-20T06:57:23.841Z,249.86
2023-04-20T06:58:23.835Z,250.00
2023-04-20T06:59:23.787Z,250.00
2023-04-20T07:00:23.749Z,250.00
2023-04-20T07:01:23.782Z,248.13
2023-04-20T07:02:23.881Z,249.74
2023-04-20T07:03:23.803Z,250.00
2023-04-20T07:04:23.630Z,248.72
2023-04-20T07:05:23.592Z,247.34
2023-04-20T07:06:23.541Z,249.48
2023-04-20T07:07:23.497Z,249.87
2023-04-20T07:08:23.466Z,249.14
2023-04-20T07:09:23.449Z,250.00
2023-04-20T07:10:23.407Z,248.03
2023-04-20T07:11:23.355Z,249.00
2023-04-20T07:12:23.328Z,249.59
2023-04-20T07:13:23.272Z,249.78
2023-04-20T07:14:23.246Z,250.00
2023-04-20T07:15:23.215Z,250.00
2023-04-20T07:16:23.215Z,245.21
2023-04-20T07:17:23.782Z,240.53
2023-04-20T07:18:23.115Z,240.64
2023-04-20T07:19:23.058Z,242.22
2023-04-20T07:20:23.012Z,242.97
2023-04-20T07:21:22.991Z,243.39
2023-04-20T07:22:22.942Z,242.60
2023-04-20T07:23:22.902Z,241.89
2023-04-20T07:24:24.635Z,243.24
2023-04-20T07:25:22.835Z,243.97
2023-04-20T07:26:23.127Z,244.47
2023-04-20T07:27:22.773Z,244.60
2023-04-20T07:28:22.730Z,244.30
2023-04-20T07:29:22.735Z,245.03
2023-04-20T07:30:22.720Z,245.31
2023-04-20T07:31:22.783Z,244.30
2023-04-20T07:32:22.922Z,244.48
2023-04-20T07:33:22.766Z,243.91
2023-04-20T07:34:22.786Z,243.39
2023-04-20T07:35:22.799Z,244.44
2023-04-20T07:36:22.803Z,245.02
2023-04-20T07:37:23.479Z,244.77
2023-04-20T07:38:22.830Z,244.14
2023-04-20T07:39:22.870Z,243.98
2023-04-20T07:40:22.878Z,242.95
2023-04-20T07:41:22.906Z,241.56
2023-04-20T07:42:22.932Z,240.97
2023-04-20T07:43:22.949Z,243.19
2023-04-20T07:44:23.108Z,241.69
2023-04-20T07:45:22.994Z,241.88
2023-04-20T07:46:23.156Z,240.38
2023-04-20T07:47:23.176Z,240.27
2023-04-20T07:48:23.076Z,240.34
2023-04-20T07:49:23.109Z,240.55
2023-04-20T07:50:23.722Z,239.69
2023-04-20T07:51:23.171Z,237.89
2023-04-20T07:52:23.203Z,238.36
2023-04-20T07:53:23.234Z,236.53
2023-04-20T07:54:23.262Z,236.27
2023-04-20T07:55:23.292Z,235.90
2023-04-20T07:56:23.349Z,234.80
2023-04-20T07:57:23.350Z,234.53
2023-04-20T07:58:24.215Z,233.41
2023-04-20T07:59:23.415Z,233.00
2023-04-20T08:00:23.474Z,232.72
2023-04-20T08:01:23.458Z,231.85
2023-04-20T08:02:23.676Z,232.99
2023-04-20T08:03:23.626Z,232.68
2023-04-20T08:04:23.754Z,230.53
2023-04-20T08:05:23.691Z,229.89
2023-04-20T08:06:23.726Z,230.72
2023-04-20T08:07:23.608Z,228.85
2023-04-20T08:08:23.633Z,228.00
2023-04-20T08:09:23.677Z,229.04
2023-04-20T08:10:23.672Z,227.84
2023-04-20T08:11:23.707Z,227.40
2023-04-20T08:12:23.750Z,226.49
2023-04-20T08:13:23.746Z,170.43
2023-04-20T08:14:23.760Z,75.80
2023-04-20T08:15:23.756Z,35.35
2023-04-20T08:16:24.111Z,52.93
2023-04-20T08:17:23.832Z,55.63
2023-04-20T08:18:23.843Z,73.28
2023-04-20T08:19:24.239Z,78.89
2023-04-20T08:20:23.945Z,82.95
2023-04-20T08:21:25.524Z,86.65
2023-04-20T08:22:23.887Z,87.49
2023-04-20T08:23:23.863Z,92.25
2023-04-20T08:24:23.883Z,91.33
2023-04-20T08:25:25.431Z,89.25
2023-04-20T08:26:23.947Z,91.87
2023-04-20T08:27:23.990Z,90.82
2023-04-20T08:28:33.340Z,90.81
2023-04-20T08:29:25.041Z,90.93
2023-04-20T08:30:24.773Z,90.79
2023-04-20T08:31:24.045Z,88.63
2023-04-20T08:32:23.992Z,86.15
2023-04-20T08:33:24.043Z,84.00
2023-04-20T08:34:23.896Z,81.91
2023-04-20T08:35:23.868Z,81.22
2023-04-20T08:36:23.843Z,81.45
2023-04-20T08:37:23.818Z,80.59
2023-04-20T08:38:33.311Z,78.41
2023-04-20T08:39:24.756Z,78.55
2023-04-20T08:40:23.769Z,76.84
2023-04-20T08:41:23.730Z,74.95
2023-04-20T08:42:23.756Z,73.60
2023-04-20T08:43:23.774Z,71.65
2023-04-20T08:44:23.821Z,69.80
2023-04-20T08:45:23.900Z,70.98
2023-04-20T08:46:23.932Z,69.10
2023-04-20T08:47:23.972Z,67.90
2023-04-20T08:48:24.015Z,66.85
2023-04-20T08:49:24.013Z,67.06
2023-04-20T08:50:24.121Z,65.24
2023-04-20T08:51:24.117Z,65.38
2023-04-20T08:52:24.143Z,64.72
2023-04-20T08:53:24.181Z,63.07
2023-04-20T08:54:24.803Z,62.59
2023-04-20T08:55:24.272Z,62.47
2023-04-20T08:56:24.307Z,61.27
2023-04-20T08:57:24.389Z,60.69
2023-04-20T08:58:24.588Z,59.54
2023-04-20T08:59:24.456Z,59.04
2023-04-20T09:00:24.508Z,59.19
2023-04-20T09:01:34.681Z,57.61
2023-04-20T09:02:25.682Z,57.65
2023-04-20T09:03:24.760Z,57.67
2023-04-20T09:04:25.075Z,55.72
2023-04-20T09:05:24.510Z,55.28
2023-04-20T09:06:24.393Z,54.02
2023-04-20T09:07:24.369Z,53.55
2023-04-20T09:08:24.331Z,53.63
2023-04-20T09:09:24.339Z,53.07
2023-04-20T09:10:24.286Z,51.11
2023-04-20T09:11:24.321Z,49.54
2023-04-20T09:12:24.359Z,50.23
2023-04-20T09:13:24.412Z,48.74
2023-04-20T09:14:24.468Z,48.11
2023-04-20T09:15:24.482Z,48.08
2023-04-20T09:16:24.561Z,46.28
2023-04-20T09:17:24.574Z,47.45
2023-04-20T09:18:24.619Z,46.54
2023-04-20T09:19:24.691Z,46.29
2023-04-20T09:20:24.684Z,45.15
2023-04-20T09:21:24.755Z,44.50
2023-04-20T09:22:24.766Z,44.10
2023-04-20T09:23:24.805Z,43.65
2023-04-20T09:24:24.846Z,44.25
2023-04-20T09:25:25.608Z,43.17
2023-04-20T09:26:24.939Z,43.94
2023-04-20T09:27:24.987Z,43.10
2023-04-20T09:28:25.014Z,42.85
2023-04-20T09:29:25.076Z,42.93
2023-04-20T09:30:25.092Z,41.74
2023-04-20T09:31:25.158Z,41.12
2023-04-20T09:32:25.244Z,39.97
2023-04-20T09:33:25.188Z,40.87
2023-04-20T09:34:25.224Z,41.01
2023-04-20T09:35:25.259Z,40.59
2023-04-20T09:36:25.363Z,40.53
2023-04-20T09:37:25.335Z,40.57
2023-04-20T09:38:25.370Z,39.60
2023-04-20T09:39:25.395Z,39.34
2023-04-20T09:40:25.449Z,39.21
2023-04-20T09:41:25.464Z,39.05
2023-04-20T09:42:25.486Z,39.42
2023-04-20T09:43:25.533Z,39.07
2023-04-20T09:44:25.558Z,39.20
2023-04-20T09:45:25.589Z,39.57
2023-04-20T09:46:25.635Z,38.98
2023-04-20T09:47:25.663Z,38.93
2023-04-20T09:48:26.258Z,38.66
2023-04-20T09:49:25.701Z,38.21
2023-04-20T09:50:35.044Z,37.70
2023-04-20T09:51:26.691Z,37.84
2023-04-20T09:52:25.756Z,37.90
2023-04-20T09:53:25.634Z,37.85
2023-04-20T09:54:25.601Z,37.96
2023-04-20T09:55:25.581Z,37.83
2023-04-20T09:56:25.554Z,38.39
2023-04-20T09:57:26.271Z,36.82
2023-04-20T09:58:25.521Z,37.27
2023-04-20T09:59:25.500Z,36.96
2023-04-20T10:00:25.464Z,36.66
2023-04-20T10:01:25.520Z,36.51
2023-04-20T10:02:25.589Z,36.33
2023-04-20T10:03:25.667Z,36.89
2023-04-20T10:04:25.683Z,36.40
2023-04-20T10:05:25.509Z,37.04
2023-04-20T10:06:25.537Z,36.07
2023-04-20T10:07:25.566Z,36.64
2023-04-20T10:08:25.588Z,36.15
2023-04-20T10:09:25.623Z,36.34
2023-04-20T10:10:25.646Z,36.01
2023-04-20T10:11:26.666Z,35.69
2023-04-20T10:12:25.714Z,38.24
2023-04-20T10:13:25.733Z,23.48
2023-04-20T10:14:25.810Z,8.82
2023-04-20T10:15:25.802Z,9.62
2023-04-20T10:16:25.873Z,19.49
2023-04-20T10:17:25.946Z,25.34
2023-04-20T10:18:26.070Z,31.85
2023-04-20T10:19:25.969Z,36.26
2023-04-20T10:20:26.044Z,42.75
2023-04-20T10:21:26.077Z,47.96
2023-04-20T10:22:26.142Z,49.73
2023-04-20T10:23:26.126Z,55.87
2023-04-20T10:24:26.141Z,61.21
2023-04-20T10:25:26.161Z,66.77
2023-04-20T10:26:26.170Z,69.28
2023-04-20T10:27:26.199Z,72.75
2023-04-20T10:28:26.208Z,75.45
2023-04-20T10:29:26.144Z,78.24
2023-04-20T10:30:26.111Z,81.34
2023-04-20T10:31:26.127Z,84.10
2023-04-20T10:32:26.165Z,85.64
2023-04-20T10:33:26.023Z,88.46
2023-04-20T10:34:26.022Z,90.92
2023-04-20T10:35:25.997Z,93.05
2023-04-20T10:36:25.981Z,97.67
2023-04-20T10:37:25.995Z,101.59
2023-04-20T10:38:25.981Z,102.64
2023-04-20T10:39:25.992Z,105.03
2023-04-20T10:40:26.013Z,107.05
2023-04-20T10:41:26.785Z,108.16
2023-04-20T10:42:25.983Z,112.32
2023-04-20T10:43:26.000Z,114.14
2023-04-20T10:44:26.008Z,118.21
2023-04-20T10:45:26.025Z,118.82
2023-04-20T10:46:26.058Z,119.56
2023-04-20T10:47:26.114Z,120.62
2023-04-20T10:48:26.083Z,124.33
2023-04-20T10:49:26.124Z,126.74
2023-04-20T10:50:26.060Z,127.04
2023-04-20T10:51:26.101Z,128.23
2023-04-20T10:52:25.978Z,131.00
2023-04-20T10:53:25.909Z,133.74
2023-04-20T10:54:25.868Z,139.10
2023-04-20T10:55:25.815Z,141.88
2023-04-20T10:56:25.815Z,144.60
2023-04-20T10:57:25.827Z,146.48
2023-04-20T10:58:25.763Z,149.34
2023-04-20T10:59:25.786Z,152.71
2023-04-20T11:00:25.808Z,153.60
2023-04-20T11:01:25.863Z,155.73
2023-04-20T11:02:26.069Z,158.80
2023-04-20T11:03:25.955Z,161.23
2023-04-20T11:04:25.906Z,161.99
2023-04-20T11:05:25.939Z,161.74
2023-04-20T11:06:25.918Z,163.37
2023-04-20T11:07:25.924Z,163.93
2023-04-20T11:08:25.958Z,165.57
2023-04-20T11:09:25.986Z,165.23
2023-04-20T11:10:26.014Z,164.72
2023-04-20T11:11:26.050Z,165.59
2023-04-20T11:12:26.087Z,166.10
2023-04-20T11:13:26.014Z,164.72
2023-04-20T11:14:26.072Z,166.09
2023-04-20T11:15:26.009Z,166.11
2023-04-20T11:16:36.286Z,166.59
2023-04-20T11:17:27.161Z,166.68
2023-04-20T11:18:25.861Z,165.33
2023-04-20T11:19:25.826Z,163.69
2023-04-20T11:20:25.781Z,164.50
2023-04-20T11:21:25.715Z,163.10
2023-04-20T11:22:25.681Z,164.97
2023-04-20T11:23:25.647Z,163.49
2023-04-20T11:24:25.638Z,162.69
2023-04-20T11:25:25.567Z,163.51
2023-04-20T11:26:25.530Z,164.34
2023-04-20T11:27:25.486Z,164.98
2023-04-20T11:28:25.455Z,164.01
2023-04-20T11:29:25.419Z,164.86
2023-04-20T11:30:25.368Z,164.44
2023-04-20T11:31:25.394Z,163.74
2023-04-20T11:32:25.496Z,163.35
2023-04-20T11:33:25.945Z,164.23
2023-04-20T11:34:25.191Z,162.82
2023-04-20T11:35:25.158Z,164.15
2023-04-20T11:36:25.101Z,163.51
2023-04-20T11:37:25.071Z,163.07
2023-04-20T11:38:25.020Z,163.45
2023-04-20T11:39:24.982Z,162.70
2023-04-20T11:40:26.150Z,161.97
2023-04-20T11:41:24.905Z,163.10
2023-04-20T11:42:24.862Z,161.92
2023-04-20T11:43:24.809Z,162.34
2023-04-20T11:44:24.822Z,161.57
2023-04-20T11:45:24.724Z,161.23
2023-04-20T11:46:24.738Z,161.56
2023-04-20T11:47:24.705Z,160.43
2023-04-20T11:48:24.612Z,160.41
2023-04-20T11:49:24.559Z,160.59
2023-04-20T11:50:24.539Z,160.42
2023-04-20T11:51:24.479Z,160.29
2023-04-20T11:52:24.430Z,159.75
2023-04-20T11:53:24.401Z,159.05
2023-04-20T11:54:24.625Z,159.07
2023-04-20T11:55:24.340Z,159.10
2023-04-20T11:56:24.262Z,158.83
2023-04-20T11:57:24.246Z,158.09
2023-04-20T11:58:24.198Z,158.28
2023-04-20T11:59:24.152Z,157.93
2023-04-20T12:00:24.227Z,157.66
2023-04-20T12:01:24.070Z,157.29
2023-04-20T12:02:24.245Z,157.25
2023-04-20T12:03:24.223Z,156.82
2023-04-20T12:04:24.262Z,156.29
2023-04-20T12:05:24.082Z,156.36
2023-04-20T12:06:23.905Z,156.06
2023-04-20T12:07:23.862Z,155.75
2023-04-20T12:08:23.833Z,155.03
2023-04-20T12:09:23.790Z,154.77
2023-04-20T12:10:23.758Z,154.40
2023-04-20T12:11:23.737Z,154.13
2023-04-20T12:12:23.692Z,154.11
2023-04-20T12:13:23.646Z,153.52
2023-04-20T12:14:23.622Z,153.43
2023-04-20T12:15:23.600Z,153.72
2023-04-20T12:16:23.615Z,153.40
2023-04-20T12:17:23.630Z,153.51
2023-04-20T12:18:23.488Z,152.88
2023-04-20T12:19:23.456Z,152.46
2023-04-20T12:20:23.430Z,152.32
2023-04-20T12:21:23.392Z,152.00
2023-04-20T12:22:23.346Z,151.98
2023-04-20T12:23:23.316Z,151.85
2023-04-20T12:24:23.279Z,151.55
2023-04-20T12:25:23.247Z,151.81
2023-04-20T12:26:31.950Z,150.86
2023-04-20T12:27:24.156Z,151.01
2023-04-20T12:28:23.117Z,151.06
2023-04-20T12:29:23.082Z,151.02
2023-04-20T12:30:23.060Z,150.75
2023-04-20T12:31:24.413Z,150.10
2023-04-20T12:32:23.108Z,150.86
2023-04-20T12:33:22.966Z,151.07
2023-04-20T12:34:22.931Z,150.46
2023-04-20T12:35:22.937Z,150.24
2023-04-20T12:36:22.868Z,149.60
2023-04-20T12:37:22.836Z,149.57
2023-04-20T12:38:22.804Z,148.74
2023-04-20T12:39:22.783Z,148.79
2023-04-20T12:40:22.789Z,148.80
2023-04-20T12:41:22.716Z,148.76
2023-04-20T12:42:22.698Z,149.05
2023-04-20T12:43:22.660Z,148.97